Time;durP1;ratioP1;P1;durP2;ratioP2;P2;SDS_P1;SDS_P2;PMS_P1;PMS_P2;Temp;Humidity;BMP_temperature;BMP_pressure;BME280_temperature;BME280_humidity;BME280_pressure;Samples;Min_cycle;Max_cycle;Signal;HPM_P1;HPM_P2
2024/01/23 00:01:47;;;;;;;89.07;47.87;;;13.50;99.90;;;;;;10448470;28;20254;-83
2024/01/23 00:06:49;;;;;;;112.67;65.87;;;13.70;99.90;;;;;;10449189;28;20231;-83
2024/01/23 00:11:52;;;;;;;113.97;64.90;;;13.60;99.90;;;;;;10450695;28;20227;-83
2024/01/23 00:16:56;;;;;;;98.30;52.17;;;13.30;99.90;;;;;;10444380;28;20241;-83
2024/01/23 00:21:58;;;;;;;109.60;62.07;;;13.30;99.90;;;;;;10438957;28;20258;-83
2024/01/23 00:27:01;;;;;;;105.13;62.00;;;13.30;99.90;;;;;;10454747;28;20203;-87
2024/01/23 00:32:05;;;;;;;88.70;54.37;;;13.20;99.90;;;;;;10465001;28;20291;-87
2024/01/23 00:37:07;;;;;;;66.70;42.37;;;13.00;99.90;;;;;;10456596;28;20266;-86
2024/01/23 00:42:10;;;;;;;103.00;57.30;;;13.00;99.90;;;;;;10455899;28;20713;-86
2024/01/23 00:47:13;;;;;;;76.47;47.40;;;13.10;99.90;;;;;;10454980;28;20641;-86
2024/01/23 00:52:15;;;;;;;54.07;34.63;;;12.70;99.90;;;;;;10454599;28;20920;-86
2024/01/23 00:57:17;;;;;;;79.53;42.77;;;12.70;99.90;;;;;;10455565;28;20238;-87
2024/01/23 01:02:20;;;;;;;28.57;17.43;;;12.50;99.90;;;;;;10455495;28;20254;-87
2024/01/23 01:07:22;;;;;;;78.73;46.73;;;12.20;99.90;;;;;;10454945;28;20226;-87
2024/01/23 01:12:25;;;;;;;64.33;33.47;;;11.70;99.90;;;;;;10453344;28;20226;-87
2024/01/23 01:17:27;;;;;;;64.50;42.10;;;11.90;99.90;;;;;;10454161;28;20303;-86
2024/01/23 01:22:30;;;;;;;59.33;36.63;;;12.60;99.90;;;;;;10454566;28;20801;-86
2024/01/23 01:27:32;;;;;;;65.30;39.17;;;12.70;99.90;;;;;;10454008;28;20287;-86
2024/01/23 01:32:35;;;;;;;53.13;30.40;;;12.90;99.90;;;;;;10452773;28;20265;-86
2024/01/23 01:37:38;;;;;;;54.17;32.40;;;13.10;99.90;;;;;;10453591;28;20270;-87
2024/01/23 01:42:42;;;;;;;55.27;32.20;;;13.40;99.90;;;;;;10453833;28;20883;-87
2024/01/23 01:47:47;;;;;;;53.30;30.07;;;13.50;99.90;;;;;;10453736;28;20253;-87
2024/01/23 01:52:49;;;;;;;30.67;15.27;;;13.40;99.90;;;;;;10453867;28;20215;-87
2024/01/23 01:57:52;;;;;;;55.83;36.33;;;13.40;99.90;;;;;;10453715;28;20238;-86
2024/01/23 02:02:54;;;;;;;58.53;34.30;;;13.60;99.90;;;;;;10453378;28;20717;-86
2024/01/23 02:07:57;;;;;;;54.53;33.77;;;13.30;99.90;;;;;;10453292;28;20276;-86
2024/01/23 02:13:00;;;;;;;56.33;37.03;;;13.60;99.90;;;;;;10452827;28;20245;-86
2024/01/23 02:18:02;;;;;;;52.63;33.17;;;13.40;99.90;;;;;;10452345;28;20253;-86
2024/01/23 02:23:11;;;;;;;48.77;30.50;;;13.20;99.90;;;;;;10452375;28;20312;-87
2024/01/23 02:28:15;;;;;;;51.77;30.87;;;12.80;99.90;;;;;;10415797;28;20199;-87
2024/01/23 02:33:18;;;;;;;56.47;33.67;;;13.20;99.90;;;;;;10451695;28;20272;-86
2024/01/23 02:38:20;;;;;;;55.37;36.17;;;12.70;99.90;;;;;;10450588;28;20686;-86
2024/01/23 02:43:23;;;;;;;22.53;14.07;;;12.60;99.90;;;;;;10450796;28;20288;-86
2024/01/23 02:48:25;;;;;;;18.97;10.67;;;12.30;99.90;;;;;;10451407;28;20256;-86
2024/01/23 02:53:28;;;;;;;55.77;32.90;;;10.40;99.90;;;;;;10451110;28;20243;-86
2024/01/23 02:58:30;;;;;;;29.07;18.33;;;10.20;99.90;;;;;;10450598;28;20287;-87
2024/01/23 03:03:33;;;;;;;21.70;9.37;;;10.50;99.90;;;;;;10450736;28;20372;-87
2024/01/23 03:08:36;;;;;;;27.97;18.07;;;9.60;99.90;;;;;;10450546;28;20218;-87
2024/01/23 03:13:41;;;;;;;15.90;9.13;;;;;;;;;;10450340;28;20738;-87
2024/01/23 03:18:44;;;;;;;27.10;17.87;;;;;;;;;;10450471;28;20660;-87
2024/01/23 03:23:48;;;;;;;24.67;14.83;;;;;;;;;;10450601;28;20298;-86
2024/01/23 03:28:51;;;;;;;41.37;27.07;;;;;;;;;;10449898;28;20256;-86
2024/01/23 03:33:54;;;;;;;29.73;16.60;;;;;;;;;;10449550;28;20262;-86
2024/01/23 03:38:57;;;;;;;36.90;24.67;;;;;;;;;;10449773;28;20679;-87
2024/01/23 03:44:02;;;;;;;29.93;21.10;;;;;;;;;;10449592;28;20247;-86
2024/01/23 03:49:06;;;;;;;30.37;17.30;;;;;;;;;;10431984;28;20292;-86
2024/01/23 03:54:09;;;;;;;38.37;21.77;;;10.80;99.90;;;;;;10447190;28;20234;-86
2024/01/23 03:59:11;;;;;;;29.83;20.03;;;11.20;99.90;;;;;;10447718;28;20254;-88
2024/01/23 04:04:14;;;;;;;29.03;17.23;;;11.20;99.90;;;;;;10449297;28;20262;-86
2024/01/23 04:09:17;;;;;;;41.23;25.97;;;10.50;99.90;;;;;;10448178;28;20222;-86
2024/01/23 04:14:20;;;;;;;22.63;15.57;;;10.10;99.90;;;;;;10448905;28;20238;-86
2024/01/23 04:19:23;;;;;;;19.97;10.07;;;10.10;99.90;;;;;;10448642;28;20617;-87
2024/01/23 04:24:25;;;;;;;20.70;14.13;;;10.00;99.90;;;;;;10447906;28;20661;-87
2024/01/23 04:29:28;;;;;;;24.47;13.37;;;10.20;99.90;;;;;;10448672;28;20227;-87
2024/01/23 04:34:30;;;;;;;34.90;21.63;;;10.40;99.90;;;;;;10448588;28;20316;-87
2024/01/23 04:39:33;;;;;;;24.07;14.40;;;10.60;99.90;;;;;;10448556;28;20292;-87
2024/01/23 04:44:36;;;;;;;23.50;15.30;;;10.10;99.90;;;;;;10448390;28;20670;-86
2024/01/23 04:49:38;;;;;;;13.03;7.90;;;10.30;99.90;;;;;;10448305;28;20607;-86
2024/01/23 04:54:42;;;;;;;37.23;20.60;;;10.60;99.90;;;;;;10448146;28;20269;-86
2024/01/23 04:59:46;;;;;;;15.47;9.90;;;11.20;99.90;;;;;;10450851;28;20264;-87
2024/01/23 05:04:48;;;;;;;19.50;13.00;;;11.40;99.90;;;;;;10454995;28;20258;-87
2024/01/23 05:09:50;;;;;;;20.03;13.50;;;11.90;99.90;;;;;;10454998;28;20234;-87
2024/01/23 05:14:53;;;;;;;21.77;12.70;;;11.50;99.90;;;;;;10454342;28;20235;-86
2024/01/23 05:19:55;;;;;;;24.37;16.23;;;11.80;99.90;;;;;;10454110;28;20292;-86
2024/01/23 05:24:58;;;;;;;29.10;16.23;;;12.20;99.90;;;;;;10454061;28;20246;-86
2024/01/23 05:30:04;;;;;;;21.77;13.93;;;12.50;99.90;;;;;;10453710;28;20230;-86
2024/01/23 05:35:07;;;;;;;24.33;16.20;;;12.60;99.90;;;;;;10452682;28;20258;-86
2024/01/23 05:40:11;;;;;;;28.13;15.50;;;12.80;99.90;;;;;;10453893;28;20292;-86
2024/01/23 05:45:13;;;;;;;19.03;11.30;;;12.80;99.90;;;;;;10452683;28;20363;-86
2024/01/23 05:50:16;;;;;;;12.10;7.87;;;13.10;99.90;;;;;;10453368;28;20283;-87
2024/01/23 05:55:18;;;;;;;20.17;12.13;;;13.00;99.90;;;;;;10453852;28;20600;-86
2024/01/23 06:00:21;;;;;;;19.50;12.40;;;12.90;99.90;;;;;;10452729;28;20234;-87
2024/01/23 06:05:24;;;;;;;19.60;13.23;;;12.60;99.90;;;;;;10451312;28;20312;-86
2024/01/23 06:10:26;;;;;;;16.40;6.80;;;12.30;99.90;;;;;;10452684;28;20280;-85
2024/01/23 06:15:29;;;;;;;8.30;4.03;;;11.40;99.90;;;;;;10451359;28;20242;-87
2024/01/23 06:20:31;;;;;;;12.07;4.50;;;11.60;99.90;;;;;;10452794;28;20297;-87
2024/01/23 06:25:34;;;;;;;9.60;4.27;;;10.60;99.90;;;;;;10451658;28;20258;-87
2024/01/23 06:30:37;;;;;;;12.33;4.47;;;10.20;99.90;;;;;;10450697;28;20234;-86
2024/01/23 06:35:39;;;;;;;7.00;2.93;;;10.50;99.90;;;;;;10451232;28;20262;-87
2024/01/23 06:40:42;;;;;;;5.83;2.50;;;11.40;99.90;;;;;;10451252;28;20285;-86
2024/01/23 06:45:44;;;;;;;7.80;3.70;;;11.80;99.90;;;;;;10450720;28;20250;-86
2024/01/23 06:50:47;;;;;;;6.53;3.17;;;11.50;99.90;;;;;;10451124;28;20286;-87
2024/01/23 06:55:49;;;;;;;6.27;3.07;;;11.30;99.90;;;;;;10451029;28;20287;-87
2024/01/23 07:00:53;;;;;;;5.40;2.33;;;11.20;99.90;;;;;;10450358;28;20622;-87
2024/01/23 07:05:56;;;;;;;5.37;2.13;;;11.90;99.90;;;;;;10450420;28;20246;-86
2024/01/23 07:10:58;;;;;;;7.03;2.73;;;12.30;99.90;;;;;;10449361;28;20666;-87
2024/01/23 07:16:01;;;;;;;3.30;2.17;;;12.00;99.90;;;;;;10448363;28;20583;-86
2024/01/23 07:21:04;;;;;;;10.90;3.90;;;12.60;99.90;;;;;;10449752;28;20285;-84
2024/01/23 07:26:07;;;;;;;6.03;3.30;;;12.70;99.90;;;;;;10449604;28;20319;-84
2024/01/23 07:31:13;;;;;;;7.97;2.77;;;12.80;99.90;;;;;;10448935;28;20601;-83
2024/01/23 07:36:15;;;;;;;4.43;2.57;;;12.60;99.90;;;;;;10448707;28;20276;-87
2024/01/23 07:41:19;;;;;;;2.20;1.77;;;13.30;99.90;;;;;;10449503;28;20663;-87
2024/01/23 07:46:22;;;;;;;8.07;3.07;;;12.10;99.90;;;;;;10450423;28;20254;-88
2024/01/23 07:51:27;;;;;;;6.70;3.03;;;12.60;99.90;;;;;;10449954;28;20231;-88
2024/01/23 07:56:30;;;;;;;6.77;3.00;;;12.50;99.90;;;;;;10449165;28;20293;-88
2024/01/23 08:01:32;;;;;;;5.53;1.90;;;12.70;99.90;;;;;;10449148;28;20363;-88
2024/01/23 08:06:35;;;;;;;7.47;3.83;;;12.80;99.90;;;;;;10447830;28;20272;-89
2024/01/23 08:11:38;;;;;;;5.23;1.97;;;12.60;99.90;;;;;;10448885;28;20296;-88
2024/01/23 08:16:44;;;;;;;7.20;3.37;;;12.90;99.90;;;;;;10430997;28;20315;-88
2024/01/23 08:21:49;;;;;;;4.80;2.67;;;13.00;99.90;;;;;;10448642;28;20253;-88
2024/01/23 08:26:54;;;;;;;6.70;2.50;;;13.00;99.90;;;;;;10448422;28;20638;-88
2024/01/23 08:31:56;;;;;;;8.80;2.23;;;12.80;99.90;;;;;;10448215;28;20234;-88
2024/01/23 08:36:59;;;;;;;6.30;2.60;;;12.80;99.90;;;;;;10453589;28;20281;-88
2024/01/23 08:42:03;;;;;;;10.53;2.60;;;13.00;99.90;;;;;;10455964;28;20239;-88
2024/01/23 08:47:06;;;;;;;5.17;3.03;;;12.90;99.90;;;;;;10455693;28;20756;-88
2024/01/23 08:52:08;;;;;;;3.60;2.07;;;13.10;99.90;;;;;;10455755;28;20262;-89
2024/01/23 08:57:11;;;;;;;5.53;1.57;;;13.50;99.90;;;;;;10455073;28;20303;-88
2024/01/23 09:02:14;;;;;;;5.03;2.30;;;13.30;99.90;;;;;;10454950;28;20258;-88
2024/01/23 09:07:18;;;;;;;6.10;2.83;;;13.00;99.90;;;;;;10453809;28;20280;-89
2024/01/23 09:12:21;;;;;;;2.87;2.03;;;13.40;99.90;;;;;;10454623;28;20230;-88
2024/01/23 09:17:24;;;;;;;3.90;1.83;;;13.50;99.90;;;;;;10453102;28;20693;-88
2024/01/23 09:22:29;;;;;;;4.80;2.33;;;13.40;99.90;;;;;;10453551;28;20246;-89
2024/01/23 09:27:31;;;;;;;2.67;1.40;;;13.40;99.90;;;;;;10454487;28;20230;-89
2024/01/23 09:32:59;;;;;;;3.40;1.57;;;13.40;99.90;;;;;;10454193;28;20241;-88
2024/01/23 09:38:09;;;;;;;2.23;1.33;;;13.50;99.90;;;;;;10453261;28;20222;-88
2024/01/23 09:43:12;;;;;;;4.17;1.77;;;13.50;99.90;;;;;;10436335;28;20330;-88
2024/01/23 09:48:15;;;;;;;2.80;1.40;;;13.50;99.90;;;;;;10451538;28;20291;-88
2024/01/23 09:53:23;;;;;;;8.40;2.33;;;13.60;99.90;;;;;;10452794;28;20295;-89
2024/01/23 09:58:26;;;;;;;2.07;1.30;;;13.70;99.90;;;;;;10452937;28;20617;-88
2024/01/23 10:03:33;;;;;;;2.80;1.37;;;13.70;99.90;;;;;;10452770;28;20285;-90
2024/01/23 10:08:35;;;;;;;3.60;1.37;;;13.80;99.90;;;;;;10453007;28;20276;-90
2024/01/23 10:13:42;;;;;;;3.77;2.13;;;13.70;99.90;;;;;;10452253;28;20234;-89
2024/01/23 10:18:48;;;;;;;5.47;2.50;;;14.10;99.90;;;;;;10452465;28;20259;-90
2024/01/23 10:23:52;;;;;;;4.77;1.97;;;14.00;99.90;;;;;;10452265;28;20312;-89
2024/01/23 10:28:55;;;;;;;3.20;1.33;;;14.10;99.90;;;;;;10451886;28;20229;-89
2024/01/23 10:34:00;;;;;;;1.83;0.87;;;13.70;99.90;;;;;;10449400;28;20258;-87
2024/01/23 10:39:03;;;;;;;3.33;1.60;;;13.80;99.90;;;;;;10451267;28;20288;-88
2024/01/23 10:44:09;;;;;;;3.73;1.93;;;13.90;99.90;;;;;;10450311;28;20934;-87
2024/01/23 10:49:12;;;;;;;2.17;1.30;;;13.70;99.90;;;;;;10450358;28;20331;-88
2024/01/23 10:54:34;;;;;;;4.80;1.93;;;13.70;99.90;;;;;;10450395;28;20268;-87
2024/01/23 10:59:38;;;;;;;4.33;1.53;;;13.60;99.90;;;;;;10447683;28;20295;-88
2024/01/23 11:04:41;;;;;;;1.53;0.83;;;13.70;99.90;;;;;;10448560;28;20257;-87
2024/01/23 11:10:08;;;;;;;2.20;0.97;;;13.60;99.90;;;;;;10450147;28;20291;-88
2024/01/23 11:15:15;;;;;;;2.93;1.47;;;13.50;99.90;;;;;;10450276;28;20318;-88
2024/01/23 11:20:18;;;;;;;1.77;1.17;;;13.30;99.90;;;;;;10449910;28;20644;-88
2024/01/23 11:25:23;;;;;;;3.60;1.57;;;13.70;99.90;;;;;;10448841;28;20258;-87
2024/01/23 11:30:26;;;;;;;4.53;2.07;;;13.50;99.90;;;;;;10448949;28;20621;-87
2024/01/23 11:35:29;;;;;;;2.97;1.70;;;13.50;99.90;;;;;;10449932;28;20267;-87
2024/01/23 11:40:33;;;;;;;2.73;1.37;;;13.60;99.90;;;;;;10448438;28;20287;-87
2024/01/23 11:45:37;;;;;;;6.87;1.83;;;13.50;99.90;;;;;;10448099;28;20254;-88
2024/01/23 11:50:44;;;;;;;4.13;1.70;;;13.40;99.90;;;;;;10448433;28;20227;-88
2024/01/23 11:55:47;;;;;;;4.10;1.77;;;13.80;99.90;;;;;;10448106;28;20264;-87
2024/01/23 12:00:49;;;;;;;7.10;2.63;;;13.60;99.90;;;;;;10449460;28;20234;-88
2024/01/23 12:05:52;;;;;;;0.93;0.60;;;13.40;99.90;;;;;;10448277;28;20777;-88
2024/01/23 12:10:57;;;;;;;4.27;1.80;;;13.50;99.90;;;;;;10456660;28;20609;-88
2024/01/23 12:15:59;;;;;;;9.30;2.27;;;13.70;99.90;;;;;;10458562;28;20272;-88
2024/01/23 12:21:04;;;;;;;1.27;0.80;;;13.70;99.90;;;;;;10439695;28;20320;-88
2024/01/23 12:26:06;;;;;;;1.70;0.70;;;13.60;99.90;;;;;;10455088;28;20246;-87
2024/01/23 12:31:12;;;;;;;5.90;2.17;;;13.60;99.90;;;;;;10454916;28;20277;-87
2024/01/23 12:36:16;;;;;;;7.07;2.13;;;13.60;99.90;;;;;;10453602;28;20258;-87
2024/01/23 12:41:19;;;;;;;10.40;1.60;;;13.10;99.90;;;;;;10453655;28;20261;-84
2024/01/23 12:46:22;;;;;;;5.67;1.40;;;13.60;99.90;;;;;;10455048;28;20254;-87
2024/01/23 12:51:31;;;;;;;5.83;1.30;;;14.10;99.90;;;;;;10455725;28;20219;-88
2024/01/23 12:56:34;;;;;;;2.50;1.50;;;14.40;99.90;;;;;;10454789;28;20226;-87
2024/01/23 13:01:38;;;;;;;9.43;2.10;;;;;;;;;;10454415;28;20242;-85
2024/01/23 13:06:44;;;;;;;6.67;2.17;;;;;;;;;;10454430;28;20280;-88
2024/01/23 13:11:49;;;;;;;4.30;2.03;;;;;;;;;;10454017;28;20309;-87
2024/01/23 13:16:54;;;;;;;4.67;2.03;;;;;;;;;;10452626;28;20235;-85
2024/01/23 13:21:57;;;;;;;4.30;1.10;;;;;;;;;;10453022;28;20235;-87
2024/01/23 13:27:06;;;;;;;5.83;1.50;;;14.90;99.90;;;;;;10443587;28;20305;-88
2024/01/23 13:32:09;;;;;;;4.73;1.17;;;15.10;99.90;;;;;;10452360;28;20235;-89
2024/01/23 13:37:12;;;;;;;1.97;1.20;;;15.10;99.90;;;;;;10453861;28;20320;-88
2024/01/23 13:42:15;;;;;;;2.03;0.73;;;15.20;99.90;;;;;;10454816;28;20229;-88
2024/01/23 13:47:18;;;;;;;10.20;2.03;;;15.30;99.90;;;;;;10452775;28;20710;-87
2024/01/23 13:52:32;;;;;;;5.20;1.60;;;15.10;99.90;;;;;;10452763;28;20203;-88
2024/01/23 13:57:34;;;;;;;3.23;1.33;;;14.90;99.90;;;;;;10451661;28;20270;-87
2024/01/23 14:02:37;;;;;;;3.03;1.13;;;15.10;99.90;;;;;;10451270;28;20243;-89
2024/01/23 14:07:40;;;;;;;5.20;1.60;;;15.20;99.90;;;;;;10452163;28;20653;-86
2024/01/23 14:12:44;;;;;;;2.70;1.67;;;15.10;99.90;;;;;;10452398;28;20235;-87
2024/01/23 14:17:48;;;;;;;3.30;1.10;;;15.00;99.90;;;;;;10451916;28;20235;-89
2024/01/23 14:22:53;;;;;;;3.27;1.37;;;15.00;99.90;;;;;;10450664;28;20239;-87
2024/01/23 14:27:56;;;;;;;3.97;1.10;;;15.20;99.90;;;;;;10451339;28;20645;-89
2024/01/23 14:32:59;;;;;;;4.20;1.27;;;15.10;99.90;;;;;;10450980;28;20264;-88
2024/01/23 14:38:04;;;;;;;9.80;0.90;;;15.00;99.90;;;;;;10450961;28;20258;-86
2024/01/23 14:43:07;;;;;;;5.47;1.80;;;15.00;99.90;;;;;;10449823;28;20256;-86
2024/01/23 14:48:09;;;;;;;3.77;1.27;;;14.90;99.90;;;;;;10448290;28;20243;-89
2024/01/23 14:53:12;;;;;;;2.83;0.87;;;14.70;99.90;;;;;;10452387;28;20199;-89
2024/01/23 14:58:15;;;;;;;3.63;1.50;;;14.90;99.90;;;;;;10449248;28;20824;-89
2024/01/23 15:03:18;;;;;;;9.93;2.33;;;14.40;99.90;;;;;;10450894;28;20358;-89
2024/01/23 15:08:20;;;;;;;2.93;1.43;;;13.80;99.90;;;;;;10449662;28;20638;-88
2024/01/23 15:13:24;;;;;;;7.27;1.60;;;13.70;99.90;;;;;;10449449;28;20618;-88
2024/01/23 15:18:26;;;;;;;8.87;2.87;;;13.60;99.90;;;;;;10448950;28;20304;-90
2024/01/23 15:23:29;;;;;;;6.13;2.43;;;13.50;99.90;;;;;;10449013;28;20214;-89
2024/01/23 15:28:33;;;;;;;5.37;2.10;;;13.50;99.90;;;;;;10449640;28;20242;-89
2024/01/23 15:33:38;;;;;;;10.47;2.17;;;13.40;99.90;;;;;;10449640;28;20266;-89
2024/01/23 15:38:41;;;;;;;1.20;1.10;;;13.50;99.90;;;;;;10448638;28;20198;-89
2024/01/23 15:43:43;;;;;;;10.30;3.37;;;13.70;99.90;;;;;;10449498;28;20609;-89
2024/01/23 15:48:47;;;;;;;12.80;3.70;;;13.50;99.90;;;;;;10449581;28;20234;-88
2024/01/23 15:53:49;;;;;;;8.07;3.40;;;13.20;99.90;;;;;;10448233;28;20195;-86
2024/01/23 15:58:55;;;;;;;10.93;5.33;;;13.40;99.90;;;;;;10448932;28;20226;-89
2024/01/23 16:03:58;;;;;;;6.03;2.27;;;11.80;99.90;;;;;;10449760;28;20250;-89
2024/01/23 16:09:00;;;;;;;10.70;3.23;;;11.20;99.90;;;;;;10450042;28;20229;-88
2024/01/23 16:14:03;;;;;;;12.07;4.10;;;12.10;99.90;;;;;;10448815;28;20356;-89
2024/01/23 16:19:06;;;;;;;9.27;2.30;;;12.60;99.90;;;;;;10446425;28;20300;-90
2024/01/23 16:24:09;;;;;;;13.43;4.43;;;13.70;99.90;;;;;;10448490;28;20251;-91
2024/01/23 16:29:11;;;;;;;6.83;2.23;;;13.90;99.90;;;;;;10447467;28;20234;-90
2024/01/23 16:34:14;;;;;;;3.33;1.63;;;14.10;99.90;;;;;;10448127;28;20300;-90
2024/01/23 16:39:16;;;;;;;3.27;1.70;;;14.30;99.90;;;;;;10446898;28;20258;-90
2024/01/23 16:44:19;;;;;;;5.53;1.83;;;14.30;99.90;;;;;;10448430;28;20327;-89
2024/01/23 16:49:22;;;;;;;15.73;3.37;;;14.70;99.90;;;;;;10447000;28;20279;-90
2024/01/23 16:54:25;;;;;;;5.53;2.57;;;14.90;99.90;;;;;;10426771;28;20257;-88
2024/01/23 16:59:29;;;;;;;12.50;3.93;;;14.80;99.90;;;;;;10455966;28;20230;-90
2024/01/23 17:04:33;;;;;;;1.63;1.10;;;14.50;99.90;;;;;;10453804;28;20250;-89
2024/01/23 17:09:35;;;;;;;2.83;1.20;;;14.70;99.90;;;;;;10454930;28;20226;-89
2024/01/23 17:14:40;;;;;;;3.23;1.30;;;15.00;99.90;;;;;;10104676;28;10000604;-89
2024/01/23 17:19:44;;;;;;;10.77;2.70;;;14.90;99.90;;;;;;10455477;28;20230;-90
2024/01/23 17:24:47;;;;;;;2.23;1.60;;;15.10;99.90;;;;;;10456745;28;20669;-89
2024/01/23 17:29:50;;;;;;;7.40;1.87;;;15.20;99.90;;;;;;10455661;28;20290;-87
2024/01/23 17:34:53;;;;;;;5.00;2.93;;;15.20;99.90;;;;;;10453426;28;20356;-88
2024/01/23 17:39:55;;;;;;;4.13;2.37;;;15.10;99.90;;;;;;10435905;28;20203;-88
2024/01/23 17:44:58;;;;;;;5.60;2.10;;;15.00;99.90;;;;;;10453455;28;20246;-87
2024/01/23 17:50:01;;;;;;;8.80;3.27;;;14.90;99.90;;;;;;10451418;28;20233;-90
2024/01/23 17:55:04;;;;;;;3.87;1.90;;;14.80;99.90;;;;;;10453096;28;20731;-88
2024/01/23 18:00:10;;;;;;;6.43;2.37;;;14.90;99.90;;;;;;10451918;28;20265;-89
2024/01/23 18:05:16;;;;;;;6.40;2.00;;;14.50;99.90;;;;;;10450698;28;20239;-90
2024/01/23 18:10:19;;;;;;;7.80;2.73;;;14.30;99.90;;;;;;10447206;28;20668;-89
2024/01/23 18:15:21;;;;;;;4.83;2.53;;;13.70;99.90;;;;;;10449549;28;20246;-89
2024/01/23 18:20:24;;;;;;;11.37;4.13;;;13.50;99.90;;;;;;10452996;28;20635;-86
2024/01/23 18:25:26;;;;;;;4.67;1.90;;;13.50;99.90;;;;;;10449629;28;20293;-83
2024/01/23 18:30:30;;;;;;;10.93;4.67;;;13.70;99.90;;;;;;10450736;28;20696;-84
2024/01/23 18:35:33;;;;;;;6.33;2.73;;;13.60;99.90;;;;;;10434205;28;20311;-89
2024/01/23 18:40:36;;;;;;;19.20;6.60;;;13.70;99.90;;;;;;10450370;28;20202;-89
2024/01/23 18:45:39;;;;;;;5.27;2.87;;;13.50;99.90;;;;;;10422580;28;20263;-89
2024/01/23 18:50:41;;;;;;;5.90;2.00;;;13.70;99.90;;;;;;10418262;28;20277;-87
2024/01/23 18:55:44;;;;;;;11.27;5.27;;;13.90;99.90;;;;;;10447455;28;20226;-87
2024/01/23 19:00:46;;;;;;;6.50;3.03;;;13.40;99.90;;;;;;10439512;28;20360;-91
2024/01/23 19:05:50;;;;;;;11.17;4.07;;;12.00;99.90;;;;;;10451008;28;20610;-92
2024/01/23 19:10:52;;;;;;;9.33;4.33;;;11.50;99.90;;;;;;10449786;28;20286;-91
2024/01/23 19:15:55;;;;;;;42.77;12.50;;;11.70;99.90;;;;;;10449628;28;20281;-90
2024/01/23 19:20:58;;;;;;;21.87;9.70;;;11.30;99.90;;;;;;10449428;28;20300;-91
2024/01/23 19:26:00;;;;;;;14.03;6.60;;;10.50;99.90;;;;;;10449997;28;20254;-90
2024/01/23 19:31:03;;;;;;;4.57;3.10;;;10.50;99.90;;;;;;10462083;28;20292;-91
2024/01/23 19:36:06;;;;;;;25.87;12.23;;;8.60;99.90;;;;;;10448642;28;20592;-88
2024/01/23 19:41:10;;;;;;;30.20;13.33;;;7.70;99.90;;;;;;10461455;28;20213;-90
2024/01/23 19:46:12;;;;;;;19.73;7.53;;;6.00;99.90;;;;;;10460764;28;20298;-89
2024/01/23 19:51:15;;;;;;;27.83;12.70;;;5.20;99.90;;;;;;10451582;28;20259;-89
2024/01/23 19:56:20;;;;;;;30.73;12.50;;;7.20;99.90;;;;;;10454405;28;20295;-88
2024/01/23 20:01:22;;;;;;;13.73;6.07;;;5.70;99.90;;;;;;10460239;28;20245;-91
2024/01/23 20:06:25;;;;;;;14.07;4.10;;;5.10;99.90;;;;;;10449265;28;20659;-89
2024/01/23 20:11:28;;;;;;;18.03;6.73;;;7.30;99.90;;;;;;10440320;28;20287;-87
2024/01/23 20:16:30;;;;;;;21.73;8.93;;;8.80;99.90;;;;;;10448966;28;20320;-89
2024/01/23 20:21:33;;;;;;;9.23;5.23;;;9.50;99.90;;;;;;10449572;28;20632;-87
2024/01/23 20:26:36;;;;;;;11.30;5.13;;;;;;;;;;10446519;28;20254;-88
2024/01/23 20:31:38;;;;;;;9.67;4.73;;;11.90;99.90;;;;;;10445923;28;20666;-88
2024/01/23 20:36:47;;;;;;;15.80;7.40;;;;;;;;;;10462156;28;20266;-87
2024/01/23 20:41:50;;;;;;;7.53;3.80;;;12.20;99.90;;;;;;10453016;28;20252;-90
2024/01/23 20:46:52;;;;;;;11.00;4.57;;;12.60;99.90;;;;;;10455318;28;20649;-87
2024/01/23 20:51:55;;;;;;;1.73;1.33;;;12.90;99.90;;;;;;10454747;28;20649;-85
2024/01/23 20:56:58;;;;;;;8.83;4.07;;;13.20;99.90;;;;;;10454992;28;20276;-83
2024/01/23 21:02:01;;;;;;;9.07;4.50;;;12.60;99.90;;;;;;10449893;28;20223;-83
2024/01/23 21:07:03;;;;;;;15.30;5.70;;;12.80;99.90;;;;;;10454653;28;20276;-83
2024/01/23 21:12:06;;;;;;;10.90;4.47;;;12.20;99.90;;;;;;10456464;28;20305;-83
2024/01/23 21:17:09;;;;;;;12.93;6.37;;;12.00;99.90;;;;;;10452983;28;20769;-84
2024/01/23 21:22:12;;;;;;;7.93;3.70;;;12.80;99.90;;;;;;10452958;28;20262;-83
2024/01/23 21:27:15;;;;;;;7.03;3.40;;;13.00;99.90;;;;;;10449663;28;20298;-84
2024/01/23 21:32:17;;;;;;;7.40;4.43;;;13.50;99.90;;;;;;10452117;28;20223;-83
2024/01/23 21:37:20;;;;;;;14.17;6.17;;;13.60;99.90;;;;;;10454005;28;20266;-88
2024/01/23 21:42:22;;;;;;;14.87;5.13;;;13.10;99.90;;;;;;10453079;28;20268;-89
2024/01/23 21:47:25;;;;;;;27.87;10.67;;;13.10;99.90;;;;;;10434747;28;20266;-89
2024/01/23 21:52:28;;;;;;;15.00;7.57;;;12.60;99.90;;;;;;10442947;28;20227;-83
2024/01/23 21:57:30;;;;;;;23.47;7.40;;;11.40;99.90;;;;;;10450829;28;20618;-83
2024/01/23 22:02:32;;;;;;;17.90;8.63;;;10.10;99.90;;;;;;10450648;28;20257;-88
2024/01/23 22:07:35;;;;;;;17.83;7.93;;;10.40;99.90;;;;;;10451836;28;20254;-90
2024/01/23 22:12:38;;;;;;;15.63;8.20;;;9.70;99.90;;;;;;10453846;28;20285;-91
2024/01/23 22:17:41;;;;;;;19.37;8.90;;;8.90;99.90;;;;;;10456361;28;20246;-87
2024/01/23 22:22:44;;;;;;;19.73;7.83;;;8.80;99.90;;;;;;10453411;28;20300;-90
2024/01/23 22:33:25;;;;;;;16.10;7.13;;;8.40;99.90;;;;;;10452529;28;20337;-89
2024/01/23 22:38:27;;;;;;;26.53;9.03;;;8.40;99.90;;;;;;10451624;28;20218;-89
2024/01/23 22:43:30;;;;;;;25.97;9.03;;;;;;;;;;10449880;28;20235;-89
2024/01/23 22:48:33;;;;;;;18.53;8.30;;;6.90;99.90;;;;;;10450474;28;20304;-88
2024/01/23 22:53:35;;;;;;;19.07;7.63;;;6.70;99.90;;;;;;10450152;28;20288;-87
2024/01/23 22:58:38;;;;;;;11.07;5.90;;;7.10;99.90;;;;;;10449419;28;20217;-87
2024/01/23 23:03:40;;;;;;;15.03;6.70;;;7.10;99.90;;;;;;10450853;28;20652;-87
2024/01/23 23:08:43;;;;;;;18.23;7.33;;;7.60;99.90;;;;;;10448791;28;20690;-87
2024/01/23 23:13:47;;;;;;;8.90;4.10;;;;;;;;;;10449579;28;20222;-87
2024/01/23 23:18:49;;;;;;;13.23;5.23;;;8.00;99.90;;;;;;10447803;28;20307;-87
2024/01/23 23:23:52;;;;;;;14.90;6.70;;;8.40;99.90;;;;;;10449931;28;20284;-87
2024/01/23 23:28:55;;;;;;;17.77;6.40;;;;;;;;;;10449802;28;20839;-87
2024/01/23 23:33:57;;;;;;;13.73;5.90;;;;;;;;;;10449323;28;20266;-87
2024/01/23 23:39:00;;;;;;;17.03;7.00;;;;;;;;;;10449705;28;20222;-88
2024/01/23 23:44:03;;;;;;;5.63;3.23;;;7.20;99.90;;;;;;10448719;28;20230;-87
2024/01/23 23:49:06;;;;;;;16.47;6.00;;;6.80;99.90;;;;;;10447947;28;20250;-87
2024/01/23 23:54:08;;;;;;;15.03;6.47;;;7.10;99.90;;;;;;10448431;28;20723;-87
2024/01/23 23:59:11;;;;;;;14.33;6.27;;;6.90;99.90;;;;;;10448321;28;20753;-87
